Fossil, Oregon
Current Conditions -  °F | °C
As of 3:55 AM on Thursday 23 Oct 2014 (Local Time) from KS39 Reporting Station
Overcast Overcast  
Wind Chill: 55°   Ceiling: 4700
Heat Index: 55°   Visibility: 10mi
Dew Point: 43°   Wind: 5mph
Humidity: 63%   Direction: 220°SW
Pressure: 29.81"   Gusts: NA
Location:  45°N, 120.22°W
Report Text: KS39 231055Z AUTO 22004KT 10SM BKN047 BKN055 OVC120 13/06 A2981 RMK AO2
Loading
Personal Weather Stations






























Interactive Weather Map
Tropical Storm Tracking
New forecast layout! Learn more

10-Day Weather Forecast

Advertisements
Track Severe Weather on mobile